Time;durP1;ratioP1;P1;durP2;ratioP2;P2;SDS_P1;SDS_P2;PMS_P1;PMS_P2;Temp;Humidity;BMP_temperature;BMP_pressure;BME280_temperature;BME280_humidity;BME280_pressure;Samples;Min_cycle;Max_cycle;Signal;HPM_P1;HPM_P2
2022/09/29 00:01:01;;;;;;;9.10;6.07;;;;;;;;;;5116003;28;20447;-67
2022/09/29 00:03:28;;;;;;;6.73;4.60;;;;;;;;;;5116632;28;20465;-67
2022/09/29 00:05:56;;;;;;;7.60;5.10;;;;;;;;;;5116214;28;20759;-68
2022/09/29 00:08:25;;;;;;;7.90;6.43;;;;;;;;;;5116579;28;20463;-67
2022/09/29 00:10:52;;;;;;;8.23;4.80;;;;;;;;;;5115920;28;20500;-68
2022/09/29 00:13:19;;;;;;;9.17;5.83;;;;;;;;;;5116059;28;20449;-67
2022/09/29 00:15:54;;;;;;;8.13;5.27;;;;;;;;;;5116131;28;20470;-67
2022/09/29 00:18:21;;;;;;;9.70;6.23;;;;;;;;;;5116275;28;20516;-68
2022/09/29 00:20:56;;;;;;;9.13;5.50;;;;;;;;;;5115547;28;20471;-67
2022/09/29 00:23:24;;;;;;;7.00;5.07;;;;;;;;;;5116507;28;20474;-67
2022/09/29 00:25:59;;;;;;;7.93;5.73;;;;;;;;;;5114857;28;20443;-67
2022/09/29 00:28:26;;;;;;;7.10;5.07;;;;;;;;;;5116205;28;20835;-68
2022/09/29 00:30:54;;;;;;;6.70;5.10;;;;;;;;;;5115458;28;20455;-68
2022/09/29 00:33:21;;;;;;;7.60;5.40;;;;;;;;;;5114639;28;20516;-67
2022/09/29 00:35:57;;;;;;;6.53;4.57;;;;;;;;;;5115623;28;20461;-69
2022/09/29 00:38:24;;;;;;;7.90;5.83;;;;;;;;;;5114828;28;20497;-69
2022/09/29 00:40:51;;;;;;;8.07;4.50;;;;;;;;;;5115427;28;20466;-68
2022/09/29 00:43:20;;;;;;;6.70;4.43;;;;;;;;;;5115577;28;20458;-68
2022/09/29 00:45:48;;;;;;;6.60;4.57;;;;;;;;;;5115493;28;20451;-68
2022/09/29 00:48:18;;;;;;;7.97;4.60;;;;;;;;;;5115711;28;20451;-68
2022/09/29 00:50:46;;;;;;;7.10;5.53;;;;;;;;;;5115291;28;20451;-68
2022/09/29 00:53:14;;;;;;;8.57;5.33;;;;;;;;;;5115099;28;20449;-68
2022/09/29 00:55:43;;;;;;;7.93;4.93;;;;;;;;;;5115059;28;20451;-68
2022/09/29 00:58:13;;;;;;;9.93;5.73;;;;;;;;;;5115024;28;20577;-69
2022/09/29 01:00:42;;;;;;;5.57;4.33;;;;;;;;;;5115737;28;20455;-68
2022/09/29 01:03:12;;;;;;;7.10;5.40;;;;;;;;;;5115945;28;20454;-69
2022/09/29 01:05:43;;;;;;;9.27;6.07;;;;;;;;;;5115684;28;20457;-68
2022/09/29 01:08:13;;;;;;;10.00;6.20;;;;;;;;;;5114969;28;20458;-68
2022/09/29 01:10:41;;;;;;;9.10;6.50;;;;;;;;;;5115167;28;20451;-68
2022/09/29 01:13:08;;;;;;;9.60;5.70;;;;;;;;;;5115261;28;20443;-68
2022/09/29 01:15:38;;;;;;;7.40;5.30;;;;;;;;;;5115539;28;21078;-68
2022/09/29 01:18:06;;;;;;;8.67;5.30;;;;;;;;;;5114844;28;20609;-68
2022/09/29 01:20:35;;;;;;;10.97;5.77;;;;;;;;;;5116140;28;20446;-68
2022/09/29 01:23:19;;;;;;;8.73;5.70;;;;;;;;;;5115090;28;20466;-68
2022/09/29 01:25:52;;;;;;;6.87;5.17;;;;;;;;;;5115493;28;20447;-68
2022/09/29 01:28:29;;;;;;;8.40;6.10;;;;;;;;;;5114353;28;20889;-68
2022/09/29 01:31:13;;;;;;;10.93;6.30;;;;;;;;;;5115077;28;20457;-68
2022/09/29 01:33:44;;;;;;;7.40;4.90;;;;;;;;;;5115476;28;20565;-68
2022/09/29 01:36:14;;;;;;;11.80;6.70;;;;;;;;;;5115210;28;20443;-68
2022/09/29 01:38:54;;;;;;;8.20;5.63;;;;;;;;;;5114130;28;20539;-68
2022/09/29 01:41:24;;;;;;;9.40;5.87;;;;;;;;;;5114772;28;20601;-68
2022/09/29 01:43:54;;;;;;;8.57;5.83;;;;;;;;;;5115891;28;20473;-69
2022/09/29 01:46:24;;;;;;;9.77;5.80;;;;;;;;;;5118478;28;20486;-68
2022/09/29 01:48:53;;;;;;;10.20;6.10;;;;;;;;;;5117840;28;20462;-68
2022/09/29 01:51:21;;;;;;;8.80;5.90;;;;;;;;;;5118411;28;20871;-68
2022/09/29 01:53:50;;;;;;;14.30;5.67;;;;;;;;;;5117659;28;20527;-68
2022/09/29 01:56:20;;;;;;;10.10;5.80;;;;;;;;;;5118803;28;20447;-68
2022/09/29 01:58:51;;;;;;;9.50;6.27;;;;;;;;;;5118286;28;20489;-69
2022/09/29 02:01:21;;;;;;;9.00;5.60;;;;;;;;;;5118811;28;20446;-67
2022/09/29 02:03:50;;;;;;;9.73;6.07;;;;;;;;;;5118158;28;20557;-68
2022/09/29 02:06:20;;;;;;;6.60;5.43;;;;;;;;;;5118737;28;20446;-68
2022/09/29 02:08:49;;;;;;;8.60;4.83;;;;;;;;;;5118495;28;20582;-68
2022/09/29 02:11:17;;;;;;;9.70;5.23;;;;;;;;;;5118257;28;20461;-68
2022/09/29 02:13:47;;;;;;;9.37;6.13;;;;;;;;;;5118131;28;20930;-68
2022/09/29 02:16:15;;;;;;;9.00;5.77;;;;;;;;;;5118023;28;20859;-68
2022/09/29 02:18:44;;;;;;;9.60;6.20;;;;;;;;;;5117888;28;20783;-68
2022/09/29 02:21:13;;;;;;;9.43;6.20;;;;;;;;;;5117337;28;20540;-68
2022/09/29 02:23:40;;;;;;;10.03;6.20;;;;;;;;;;5118389;28;20450;-68
2022/09/29 02:26:07;;;;;;;8.43;5.93;;;;;;;;;;5116410;28;20484;-68
2022/09/29 02:28:35;;;;;;;13.97;5.20;;;;;;;;;;5117440;28;20462;-68
2022/09/29 02:31:02;;;;;;;10.27;7.13;;;;;;;;;;5117660;28;20457;-68
2022/09/29 02:33:29;;;;;;;8.40;6.07;;;;;;;;;;5117035;28;20747;-68
2022/09/29 02:36:00;;;;;;;8.43;5.90;;;;;;;;;;5117767;28;20535;-68
2022/09/29 02:38:32;;;;;;;8.60;5.60;;;;;;;;;;5117444;28;20486;-68
2022/09/29 02:41:05;;;;;;;9.27;6.00;;;;;;;;;;5117583;28;20553;-68
2022/09/29 02:43:40;;;;;;;11.70;7.10;;;;;;;;;;5117365;28;20451;-68
2022/09/29 02:46:14;;;;;;;6.90;5.30;;;;;;;;;;5118329;28;20485;-68
2022/09/29 02:48:55;;;;;;;9.93;5.23;;;;;;;;;;5118084;28;20906;-68
2022/09/29 02:51:24;;;;;;;11.67;6.50;;;;;;;;;;5123643;27;20446;-68
2022/09/29 02:53:59;;;;;;;12.00;6.40;;;;;;;;;;5137343;27;20888;-68
2022/09/29 02:56:29;;;;;;;9.17;6.40;;;;;;;;;;5136699;27;20453;-68
2022/09/29 02:59:00;;;;;;;10.50;6.30;;;;;;;;;;5137590;27;20486;-68
2022/09/29 03:01:30;;;;;;;9.93;6.30;;;;;;;;;;5138137;27;20461;-69
2022/09/29 03:03:57;;;;;;;12.67;6.67;;;;;;;;;;5138059;27;20464;-68
2022/09/29 03:06:25;;;;;;;8.17;6.10;;;;;;;;;;5136890;27;20452;-68
2022/09/29 03:08:52;;;;;;;10.97;7.37;;;;;;;;;;5137254;27;20453;-68
2022/09/29 03:11:20;;;;;;;8.53;6.30;;;;;;;;;;5138136;27;20465;-68
2022/09/29 03:13:47;;;;;;;8.73;5.67;;;;;;;;;;5136698;27;20446;-68
2022/09/29 03:16:14;;;;;;;8.13;5.90;;;;;;;;;;5137418;27;20536;-68
2022/09/29 03:18:42;;;;;;;8.87;6.30;;;;;;;;;;5137563;27;20504;-68
2022/09/29 03:21:10;;;;;;;11.60;6.90;;;;;;;;;;5137105;27;20450;-68
2022/09/29 03:23:37;;;;;;;7.70;5.57;;;;;;;;;;5136869;27;20446;-68
2022/09/29 03:26:04;;;;;;;7.77;5.77;;;;;;;;;;5136259;27;20476;-68
2022/09/29 03:28:32;;;;;;;7.97;5.40;;;;;;;;;;5136216;27;20488;-68
2022/09/29 03:31:04;;;;;;;9.30;6.67;;;;;;;;;;5136727;27;20457;-68
2022/09/29 03:33:31;;;;;;;9.60;6.30;;;;;;;;;;5136935;27;20445;-68
2022/09/29 03:35:58;;;;;;;8.80;5.57;;;;;;;;;;5136690;27;20493;-68
2022/09/29 03:38:25;;;;;;;8.63;5.80;;;;;;;;;;5136435;27;20925;-68
2022/09/29 03:40:52;;;;;;;8.57;6.00;;;;;;;;;;5136103;27;21020;-68
2022/09/29 03:43:19;;;;;;;11.30;6.23;;;;;;;;;;5136933;27;20475;-68
2022/09/29 03:45:50;;;;;;;8.80;5.70;;;;;;;;;;5136571;27;20450;-68
2022/09/29 03:48:17;;;;;;;10.67;6.07;;;;;;;;;;5137097;27;20454;-68
2022/09/29 03:50:45;;;;;;;9.77;7.20;;;;;;;;;;5132308;27;20463;-68
2022/09/29 03:53:12;;;;;;;8.23;5.27;;;;;;;;;;5116820;28;20525;-69
2022/09/29 03:55:39;;;;;;;10.90;6.27;;;;;;;;;;5114691;28;20490;-68
2022/09/29 03:58:08;;;;;;;7.90;5.90;;;;;;;;;;5117036;28;20971;-68
2022/09/29 04:00:35;;;;;;;8.10;5.00;;;;;;;;;;5115632;28;20534;-68
2022/09/29 04:03:03;;;;;;;10.17;6.13;;;;;;;;;;5115670;28;20707;-68
2022/09/29 04:05:30;;;;;;;8.67;5.50;;;;;;;;;;5116065;28;20455;-68
2022/09/29 04:07:57;;;;;;;9.40;6.00;;;;;;;;;;5116250;28;20894;-68
2022/09/29 04:10:24;;;;;;;8.20;5.37;;;;;;;;;;5115491;28;20549;-67
2022/09/29 04:12:51;;;;;;;10.80;6.43;;;;;;;;;;5115716;28;20459;-68
2022/09/29 04:15:18;;;;;;;12.30;6.50;;;;;;;;;;5115121;28;20483;-68
2022/09/29 04:17:45;;;;;;;8.17;5.30;;;;;;;;;;5115284;28;20529;-68
2022/09/29 04:20:15;;;;;;;7.27;5.00;;;;;;;;;;5114451;28;20477;-68
2022/09/29 04:22:42;;;;;;;8.43;5.40;;;;;;;;;;5114913;28;20904;-68
2022/09/29 04:25:10;;;;;;;11.03;6.00;;;;;;;;;;5114891;28;20450;-68
2022/09/29 04:27:37;;;;;;;12.03;5.97;;;;;;;;;;5114023;28;20910;-68
2022/09/29 04:30:04;;;;;;;8.93;5.40;;;;;;;;;;5114393;28;20523;-68
2022/09/29 04:32:31;;;;;;;8.40;5.87;;;;;;;;;;5114510;28;20462;-68
2022/09/29 04:34:59;;;;;;;10.10;6.60;;;;;;;;;;5114598;28;20457;-68
2022/09/29 04:37:26;;;;;;;9.50;6.30;;;;;;;;;;5113412;28;20451;-68
2022/09/29 04:39:54;;;;;;;8.10;4.93;;;;;;;;;;5113048;28;20585;-68
2022/09/29 04:42:21;;;;;;;8.20;5.63;;;;;;;;;;5114577;28;20733;-68
2022/09/29 04:44:48;;;;;;;11.10;6.70;;;;;;;;;;5114888;28;20455;-68
2022/09/29 04:47:15;;;;;;;9.57;6.20;;;;;;;;;;5114390;28;20435;-68
2022/09/29 04:49:43;;;;;;;10.13;6.23;;;;;;;;;;5113763;28;20527;-67
2022/09/29 04:52:11;;;;;;;9.73;6.23;;;;;;;;;;5117450;28;20738;-68
2022/09/29 04:54:39;;;;;;;10.33;6.70;;;;;;;;;;5114670;28;20445;-68
2022/09/29 04:57:07;;;;;;;11.80;6.97;;;;;;;;;;5114488;28;20459;-68
2022/09/29 04:59:34;;;;;;;9.83;6.60;;;;;;;;;;5113711;28;20953;-67
2022/09/29 05:02:01;;;;;;;8.73;6.10;;;;;;;;;;5113753;28;20478;-68
2022/09/29 05:04:28;;;;;;;8.67;5.70;;;;;;;;;;5111784;28;20546;-67
2022/09/29 05:06:55;;;;;;;13.07;7.17;;;;;;;;;;5112663;28;20461;-68
2022/09/29 05:09:22;;;;;;;12.10;6.17;;;;;;;;;;5117511;28;21320;-68
2022/09/29 05:11:50;;;;;;;11.30;6.37;;;;;;;;;;5133345;27;20506;-68
2022/09/29 05:14:17;;;;;;;15.63;8.00;;;;;;;;;;5133213;27;20446;-67
2022/09/29 05:16:45;;;;;;;10.73;7.17;;;;;;;;;;5133285;27;20838;-67
2022/09/29 05:19:12;;;;;;;8.30;6.50;;;;;;;;;;5132161;27;21044;-68
2022/09/29 05:21:46;;;;;;;12.47;7.00;;;;;;;;;;5132795;27;20441;-67
2022/09/29 05:24:13;;;;;;;11.33;7.03;;;;;;;;;;5130353;27;20528;-68
2022/09/29 05:26:40;;;;;;;10.80;7.23;;;;;;;;;;5132430;27;20877;-67
2022/09/29 05:29:08;;;;;;;12.07;7.33;;;;;;;;;;5122837;27;20527;-67
2022/09/29 05:31:35;;;;;;;10.37;6.37;;;;;;;;;;5116627;28;20811;-67
2022/09/29 05:34:02;;;;;;;16.30;7.73;;;;;;;;;;5110888;28;20738;-67
2022/09/29 05:36:29;;;;;;;13.83;6.87;;;;;;;;;;5111686;28;20463;-68
2022/09/29 05:38:56;;;;;;;11.30;7.23;;;;;;;;;;5113079;28;20505;-68
2022/09/29 05:41:23;;;;;;;13.03;7.60;;;;;;;;;;5131416;27;20441;-68
2022/09/29 05:43:52;;;;;;;12.00;7.83;;;;;;;;;;5131409;27;20532;-67
2022/09/29 05:46:21;;;;;;;12.57;7.33;;;;;;;;;;5121523;28;20455;-68
2022/09/29 05:48:48;;;;;;;11.60;7.63;;;;;;;;;;5118607;27;20458;-67
2022/09/29 05:51:16;;;;;;;13.40;9.30;;;;;;;;;;5111825;28;20520;-67
2022/09/29 05:53:46;;;;;;;12.47;8.03;;;;;;;;;;5111151;28;20443;-67
2022/09/29 05:56:17;;;;;;;13.70;7.37;;;;;;;;;;5110245;28;21153;-68
2022/09/29 05:58:45;;;;;;;13.37;7.10;;;;;;;;;;5111214;28;20517;-67
2022/09/29 06:01:13;;;;;;;12.07;8.40;;;;;;;;;;5117089;28;20556;-67
2022/09/29 06:03:41;;;;;;;11.37;6.70;;;;;;;;;;5124373;28;20833;-67
2022/09/29 06:06:08;;;;;;;15.17;8.37;;;;;;;;;;5126075;27;20470;-68
2022/09/29 06:08:35;;;;;;;11.50;7.63;;;;;;;;;;5133136;27;20446;-67
2022/09/29 06:11:03;;;;;;;14.83;8.10;;;;;;;;;;5129424;27;20470;-68
2022/09/29 06:13:30;;;;;;;13.80;8.23;;;;;;;;;;5113374;28;20446;-67
2022/09/29 06:15:58;;;;;;;15.77;8.40;;;;;;;;;;5117411;27;21004;-67
2022/09/29 06:18:26;;;;;;;13.50;8.50;;;;;;;;;;5133691;27;21059;-67
2022/09/29 06:20:53;;;;;;;10.97;7.93;;;;;;;;;;5133868;27;20456;-67
2022/09/29 06:23:21;;;;;;;15.93;9.77;;;;;;;;;;5133964;27;20652;-68
2022/09/29 06:25:52;;;;;;;15.80;9.60;;;;;;;;;;5122645;27;20462;-68
2022/09/29 06:28:20;;;;;;;15.23;8.73;;;;;;;;;;5116786;28;20454;-67
2022/09/29 06:30:47;;;;;;;18.37;8.47;;;;;;;;;;5126947;28;20522;-67
2022/09/29 06:33:14;;;;;;;17.93;10.37;;;;;;;;;;5137907;27;20461;-68
2022/09/29 06:38:31;;;;;;;19.60;10.33;;;;;;;;;;5134216;27;20473;-68
2022/09/29 06:41:00;;;;;;;13.83;9.60;;;;;;;;;;5116680;28;20466;-68
2022/09/29 06:43:27;;;;;;;15.30;10.60;;;;;;;;;;5122494;27;20476;-68
2022/09/29 06:45:55;;;;;;;20.03;11.50;;;;;;;;;;5134334;27;21044;-67
2022/09/29 06:48:32;;;;;;;19.40;13.63;;;;;;;;;;5132849;27;20468;-68
2022/09/29 06:51:07;;;;;;;20.53;12.00;;;;;;;;;;5126343;28;20787;-68
2022/09/29 06:53:35;;;;;;;25.73;13.27;;;;;;;;;;5117560;28;20482;-67
2022/09/29 06:56:03;;;;;;;17.33;11.60;;;;;;;;;;5126509;27;20450;-68
2022/09/29 06:58:30;;;;;;;19.00;11.93;;;;;;;;;;5135664;27;20771;-68
2022/09/29 07:01:00;;;;;;;21.13;13.53;;;;;;;;;;5124902;28;20470;-70
2022/09/29 07:03:28;;;;;;;21.90;13.17;;;;;;;;;;5116328;28;20451;-68
2022/09/29 07:05:55;;;;;;;21.07;13.60;;;;;;;;;;5115169;28;20466;-68
2022/09/29 07:08:23;;;;;;;19.03;12.47;;;;;;;;;;5115865;28;20454;-68
2022/09/29 07:10:51;;;;;;;19.87;11.83;;;;;;;;;;5115021;28;20466;-68
2022/09/29 07:13:22;;;;;;;20.27;12.73;;;;;;;;;;5114934;28;20453;-69
2022/09/29 07:15:49;;;;;;;20.30;13.20;;;;;;;;;;5114466;28;20533;-68
2022/09/29 07:18:16;;;;;;;23.57;15.30;;;;;;;;;;5124433;27;20450;-68
2022/09/29 07:20:44;;;;;;;18.97;14.37;;;;;;;;;;5117449;27;20461;-69
2022/09/29 07:23:11;;;;;;;22.27;13.70;;;;;;;;;;5114777;28;20450;-69
2022/09/29 07:25:38;;;;;;;22.80;14.20;;;;;;;;;;5127092;27;20737;-69
2022/09/29 07:28:20;;;;;;;19.20;13.23;;;;;;;;;;5135273;27;20788;-68
2022/09/29 07:30:47;;;;;;;21.87;14.10;;;;;;;;;;5137214;27;20462;-67
2022/09/29 07:33:15;;;;;;;19.33;13.33;;;;;;;;;;5134313;27;20453;-67
2022/09/29 07:35:42;;;;;;;21.23;14.07;;;;;;;;;;5117211;28;20478;-69
2022/09/29 07:38:10;;;;;;;23.10;14.13;;;;;;;;;;5115100;28;20463;-69
2022/09/29 07:40:37;;;;;;;23.17;13.70;;;;;;;;;;5121765;27;20462;-69
2022/09/29 07:43:06;;;;;;;19.40;14.07;;;;;;;;;;5117797;28;20537;-69
2022/09/29 07:45:36;;;;;;;19.47;12.70;;;;;;;;;;5122550;27;20445;-69
2022/09/29 07:48:08;;;;;;;21.60;13.90;;;;;;;;;;5114984;28;20526;-69
2022/09/29 07:50:38;;;;;;;22.07;13.13;;;;;;;;;;5113913;28;20474;-70
2022/09/29 07:53:07;;;;;;;19.77;11.87;;;;;;;;;;5118805;28;20557;-68
2022/09/29 07:55:38;;;;;;;17.60;13.07;;;;;;;;;;5130111;27;20470;-68
2022/09/29 07:58:09;;;;;;;20.37;13.30;;;;;;;;;;5136056;28;20458;-67
2022/09/29 08:00:37;;;;;;;17.67;13.77;;;;;;;;;;5134330;28;20453;-67
2022/09/29 08:03:06;;;;;;;17.63;12.07;;;;;;;;;;5129687;27;20458;-67
2022/09/29 08:05:38;;;;;;;18.30;12.50;;;;;;;;;;5114497;28;20478;-67
2022/09/29 08:08:05;;;;;;;24.50;16.23;;;;;;;;;;5114538;27;20490;-69
2022/09/29 08:10:33;;;;;;;19.70;12.10;;;;;;;;;;5118023;28;20466;-69
2022/09/29 08:13:00;;;;;;;20.90;14.73;;;;;;;;;;5134558;27;20438;-69
2022/09/29 08:15:27;;;;;;;20.83;14.13;;;;;;;;;;5122692;28;20477;-69
2022/09/29 08:17:59;;;;;;;21.90;15.10;;;;;;;;;;5119696;28;20537;-69
2022/09/29 08:20:26;;;;;;;18.60;12.80;;;;;;;;;;5129026;27;20503;-69
2022/09/29 08:22:55;;;;;;;17.63;13.17;;;;;;;;;;5118565;28;20459;-68
2022/09/29 08:25:24;;;;;;;18.60;13.60;;;;;;;;;;5117532;28;20475;-69
2022/09/29 08:27:54;;;;;;;18.50;13.37;;;;;;;;;;5118506;28;21130;-68
2022/09/29 08:30:24;;;;;;;18.50;12.07;;;;;;;;;;5126776;27;20469;-68
2022/09/29 08:32:55;;;;;;;18.27;12.93;;;;;;;;;;5114719;28;20479;-68
2022/09/29 08:35:24;;;;;;;17.50;12.40;;;;;;;;;;5134325;27;20535;-68
2022/09/29 08:37:53;;;;;;;18.73;11.93;;;;;;;;;;5119549;28;20458;-67
2022/09/29 08:40:21;;;;;;;17.50;11.80;;;;;;;;;;5114704;28;20941;-68
2022/09/29 08:42:58;;;;;;;17.97;13.67;;;;;;;;;;5113838;28;20537;-68
2022/09/29 08:45:30;;;;;;;20.00;13.80;;;;;;;;;;5118415;28;20910;-68
2022/09/29 08:48:03;;;;;;;17.63;12.97;;;;;;;;;;5120394;27;20443;-71
2022/09/29 08:50:34;;;;;;;17.73;12.73;;;;;;;;;;5113478;28;20478;-68
2022/09/29 08:53:03;;;;;;;15.30;11.63;;;;;;;;;;5112861;28;20536;-69
2022/09/29 08:55:36;;;;;;;19.23;12.73;;;;;;;;;;5112831;28;20561;-67
2022/09/29 08:58:03;;;;;;;16.17;11.87;;;;;;;;;;5112459;28;20458;-68
2022/09/29 09:00:39;;;;;;;21.40;13.13;;;;;;;;;;5112344;28;20501;-67
2022/09/29 09:03:14;;;;;;;14.23;10.43;;;;;;;;;;5125428;27;20450;-67
2022/09/29 09:05:51;;;;;;;15.97;9.63;;;;;;;;;;5127203;27;20465;-69
2022/09/29 09:08:26;;;;;;;16.17;10.73;;;;;;;;;;5125386;27;20465;-69
2022/09/29 09:11:01;;;;;;;14.53;11.13;;;;;;;;;;5115164;28;20462;-67
2022/09/29 09:13:38;;;;;;;15.27;11.07;;;;;;;;;;5112639;28;20461;-68
2022/09/29 09:16:18;;;;;;;14.97;10.13;;;;;;;;;;5112312;28;20849;-68
2022/09/29 09:19:05;;;;;;;14.37;9.77;;;;;;;;;;5131808;27;20481;-67
2022/09/29 09:21:38;;;;;;;13.60;10.10;;;;;;;;;;5115220;28;20465;-67
2022/09/29 09:24:09;;;;;;;16.40;9.77;;;;;;;;;;5130669;27;20493;-69
2022/09/29 09:26:39;;;;;;;15.73;10.43;;;;;;;;;;5130528;27;20461;-69
2022/09/29 09:32:20;;;;;;;14.80;9.97;;;;;;;;;;5042417;28;20469;-68
2022/09/29 09:34:56;;;;;;;21.30;13.53;;;;;;;;;;5114602;27;20857;-69
2022/09/29 09:37:34;;;;;;;14.33;10.70;;;;;;;;;;5124166;27;20524;-68
2022/09/29 09:40:09;;;;;;;15.80;10.40;;;;;;;;;;5126170;27;20482;-67
2022/09/29 09:42:38;;;;;;;14.57;10.80;;;;;;;;;;5110887;28;20449;-67
2022/09/29 09:45:07;;;;;;;15.83;11.17;;;;;;;;;;5118790;28;20461;-68
2022/09/29 09:47:40;;;;;;;25.07;14.83;;;;;;;;;;5116603;27;20514;-68
2022/09/29 09:50:13;;;;;;;16.43;11.90;;;;;;;;;;5109627;28;20742;-68
2022/09/29 09:52:43;;;;;;;15.60;10.80;;;;;;;;;;5125911;27;20506;-69
2022/09/29 09:55:14;;;;;;;14.97;10.57;;;;;;;;;;5121362;28;20461;-68
2022/09/29 09:58:09;;;;;;;13.23;8.93;;;;;;;;;;5115412;27;20455;-69
2022/09/29 10:00:45;;;;;;;25.40;16.10;;;;;;;;;;5108899;27;20498;-68
2022/09/29 10:03:16;;;;;;;14.00;10.57;;;;;;;;;;5126742;27;20553;-68
2022/09/29 10:05:45;;;;;;;12.97;9.00;;;;;;;;;;5122281;27;20468;-68
2022/09/29 10:08:17;;;;;;;12.33;9.20;;;;;;;;;;5117496;28;20907;-68
2022/09/29 10:10:54;;;;;;;10.13;7.63;;;;;;;;;;5123837;27;20494;-68
2022/09/29 10:13:26;;;;;;;11.70;8.37;;;;;;;;;;5121969;27;20458;-68
2022/09/29 10:16:11;;;;;;;10.90;8.00;;;;;;;;;;5117726;28;20462;-68
2022/09/29 10:18:45;;;;;;;11.00;8.63;;;;;;;;;;5122835;28;20492;-70
2022/09/29 10:21:37;;;;;;;7.97;6.43;;;;;;;;;;5119954;27;20750;-73
2022/09/29 10:24:07;;;;;;;9.67;7.13;;;;;;;;;;5119942;28;20458;-69
2022/09/29 10:26:38;;;;;;;10.67;6.80;;;;;;;;;;5122421;27;20469;-68
2022/09/29 10:29:20;;;;;;;12.53;8.83;;;;;;;;;;5119090;28;20477;-69
2022/09/29 10:31:59;;;;;;;11.90;7.60;;;;;;;;;;5129062;28;20466;-68
2022/09/29 10:34:26;;;;;;;10.80;6.97;;;;;;;;;;5128928;27;20458;-69
2022/09/29 10:37:02;;;;;;;14.37;10.47;;;;;;;;;;5116591;28;20459;-68
2022/09/29 10:39:38;;;;;;;12.50;9.47;;;;;;;;;;5119732;27;20835;-68
2022/09/29 10:42:16;;;;;;;12.47;9.00;;;;;;;;;;5122771;27;20585;-68
2022/09/29 10:44:50;;;;;;;11.33;8.70;;;;;;;;;;5130136;27;20967;-68
2022/09/29 10:47:17;;;;;;;13.03;9.93;;;;;;;;;;5119685;28;20469;-68
2022/09/29 10:49:51;;;;;;;16.67;9.40;;;;;;;;;;5124293;28;20465;-67
2022/09/29 10:52:39;;;;;;;11.13;7.63;;;;;;;;;;5120770;28;20457;-68
2022/09/29 10:55:22;;;;;;;12.57;8.30;;;;;;;;;;5125309;28;20541;-68
2022/09/29 10:57:56;;;;;;;12.40;8.07;;;;;;;;;;5119055;27;20458;-68
2022/09/29 11:00:33;;;;;;;11.90;8.87;;;;;;;;;;5124799;27;20486;-69
2022/09/29 11:03:09;;;;;;;13.07;9.47;;;;;;;;;;5120068;27;20555;-67
2022/09/29 11:05:37;;;;;;;12.30;7.50;;;;;;;;;;5124299;27;20494;-67
2022/09/29 11:08:13;;;;;;;12.37;8.17;;;;;;;;;;5119124;28;20450;-68
2022/09/29 11:10:42;;;;;;;11.47;8.13;;;;;;;;;;5116478;28;20450;-69
2022/09/29 11:13:29;;;;;;;12.27;8.20;;;;;;;;;;5120662;28;20957;-68
2022/09/29 11:16:06;;;;;;;10.30;7.07;;;;;;;;;;5128109;27;20457;-67
2022/09/29 11:18:35;;;;;;;13.80;9.33;;;;;;;;;;5115872;28;20499;-69
2022/09/29 11:21:09;;;;;;;10.70;8.23;;;;;;;;;;5121920;27;20461;-69
2022/09/29 11:23:42;;;;;;;13.60;9.00;;;;;;;;;;5132430;27;20529;-68
2022/09/29 11:26:17;;;;;;;12.37;8.10;;;;;;;;;;5120652;27;20454;-69
2022/09/29 11:29:05;;;;;;;12.87;8.80;;;;;;;;;;5112614;28;20474;-70
2022/09/29 11:31:46;;;;;;;13.40;8.47;;;;;;;;;;5124423;27;20812;-68
2022/09/29 11:34:36;;;;;;;12.67;8.10;;;;;;;;;;5118733;28;20453;-70
2022/09/29 11:37:08;;;;;;;13.57;7.73;;;;;;;;;;5117151;28;20987;-70
2022/09/29 11:39:44;;;;;;;9.90;7.20;;;;;;;;;;5113126;28;20490;-68
2022/09/29 11:42:22;;;;;;;11.23;8.20;;;;;;;;;;5126430;27;20460;-69
2022/09/29 11:44:59;;;;;;;11.03;7.90;;;;;;;;;;5114673;28;20476;-69
2022/09/29 11:47:39;;;;;;;14.47;7.43;;;;;;;;;;5115432;28;20462;-69
2022/09/29 11:50:27;;;;;;;13.30;9.13;;;;;;;;;;5114916;28;20462;-69
2022/09/29 11:53:12;;;;;;;12.47;8.30;;;;;;;;;;5107949;28;20534;-69
2022/09/29 11:55:52;;;;;;;12.70;7.87;;;;;;;;;;5115170;28;20515;-68
2022/09/29 11:58:30;;;;;;;9.80;6.57;;;;;;;;;;5119684;28;20793;-69
2022/09/29 12:01:06;;;;;;;9.50;6.83;;;;;;;;;;5114180;28;20457;-69
2022/09/29 12:03:40;;;;;;;10.83;8.03;;;;;;;;;;5112663;28;21092;-70
2022/09/29 12:06:27;;;;;;;10.50;7.17;;;;;;;;;;5113872;28;20457;-70
2022/09/29 12:09:03;;;;;;;11.50;7.43;;;;;;;;;;5126217;27;20477;-70
2022/09/29 12:11:40;;;;;;;8.43;5.83;;;;;;;;;;5134461;27;21080;-69
2022/09/29 12:14:13;;;;;;;9.03;6.63;;;;;;;;;;5115322;28;20478;-68
2022/09/29 12:16:45;;;;;;;10.27;6.30;;;;;;;;;;5131103;27;20489;-69
2022/09/29 12:19:20;;;;;;;10.03;6.40;;;;;;;;;;5130949;27;20489;-68
2022/09/29 12:21:49;;;;;;;9.23;6.30;;;;;;;;;;5135508;27;20452;-68
2022/09/29 12:24:28;;;;;;;13.87;7.30;;;;;;;;;;5124495;27;20561;-69
2022/09/29 12:26:56;;;;;;;9.90;6.60;;;;;;;;;;5114377;27;20462;-69
2022/09/29 12:29:32;;;;;;;8.97;6.13;;;;;;;;;;5126665;27;20458;-68
2022/09/29 12:32:05;;;;;;;7.83;5.80;;;;;;;;;;5130997;27;20493;-69
2022/09/29 12:34:41;;;;;;;7.90;6.07;;;;;;;;;;5133598;27;20454;-69
2022/09/29 12:37:17;;;;;;;6.77;4.90;;;;;;;;;;5135144;27;20449;-69
2022/09/29 12:39:47;;;;;;;9.10;5.87;;;;;;;;;;5116866;27;20482;-69
2022/09/29 12:42:22;;;;;;;6.73;4.50;;;;;;;;;;5128467;27;20445;-69
2022/09/29 12:44:54;;;;;;;8.30;5.90;;;;;;;;;;5133172;27;20528;-68
2022/09/29 12:47:25;;;;;;;7.80;5.30;;;;;;;;;;5117029;28;20470;-68
2022/09/29 12:50:02;;;;;;;5.73;3.83;;;;;;;;;;5117717;28;20500;-69
2022/09/29 12:52:34;;;;;;;8.90;6.33;;;;;;;;;;5133586;27;20445;-69
2022/09/29 12:55:04;;;;;;;7.33;5.20;;;;;;;;;;5130375;27;20610;-69
2022/09/29 12:57:36;;;;;;;6.97;4.73;;;;;;;;;;5123844;27;20473;-68
2022/09/29 13:00:06;;;;;;;7.13;4.70;;;;;;;;;;5117499;28;21117;-69
2022/09/29 13:02:51;;;;;;;8.33;3.50;;;;;;;;;;5112671;28;20451;-68
2022/09/29 13:05:31;;;;;;;5.10;4.40;;;;;;;;;;5126302;27;20465;-69
2022/09/29 13:08:10;;;;;;;8.13;5.13;;;;;;;;;;5113354;28;20546;-69
2022/09/29 13:10:58;;;;;;;7.83;4.93;;;;;;;;;;5118706;28;21088;-69
2022/09/29 13:13:38;;;;;;;6.10;4.37;;;;;;;;;;5112350;28;20458;-69
2022/09/29 13:16:13;;;;;;;15.03;8.73;;;;;;;;;;5113919;28;20450;-68
2022/09/29 13:18:57;;;;;;;8.10;5.53;;;;;;;;;;5111484;28;20712;-69
2022/09/29 13:21:27;;;;;;;9.40;5.57;;;;;;;;;;5112876;28;20454;-69
2022/09/29 13:24:10;;;;;;;6.73;4.70;;;;;;;;;;5116578;27;21162;-70
2022/09/29 13:27:01;;;;;;;8.00;4.80;;;;;;;;;;5110309;28;20458;-69
2022/09/29 13:29:31;;;;;;;6.20;3.80;;;;;;;;;;5123044;27;20842;-70
2022/09/29 13:31:59;;;;;;;7.70;4.03;;;;;;;;;;5115953;28;20490;-70
2022/09/29 13:34:30;;;;;;;6.40;3.77;;;;;;;;;;5129371;27;20557;-69
2022/09/29 13:37:13;;;;;;;6.13;3.93;;;;;;;;;;5117737;27;20466;-70
2022/09/29 13:39:47;;;;;;;7.10;4.00;;;;;;;;;;5109171;28;20486;-69
2022/09/29 13:42:28;;;;;;;6.97;4.23;;;;;;;;;;5109063;28;20495;-70
2022/09/29 13:45:14;;;;;;;5.60;3.70;;;;;;;;;;5110146;28;21078;-69
2022/09/29 13:47:48;;;;;;;7.27;4.23;;;;;;;;;;5110781;27;20458;-71
2022/09/29 13:50:33;;;;;;;5.60;4.30;;;;;;;;;;5110465;28;20465;-69
2022/09/29 13:53:15;;;;;;;6.27;4.27;;;;;;;;;;5110920;28;20467;-69
2022/09/29 13:55:50;;;;;;;5.93;3.73;;;;;;;;;;5112049;28;20465;-69
2022/09/29 13:58:22;;;;;;;7.40;3.93;;;;;;;;;;5110964;28;20442;-69
2022/09/29 14:00:50;;;;;;;7.33;4.50;;;;;;;;;;5112000;28;20486;-69
2022/09/29 14:03:27;;;;;;;6.93;4.40;;;;;;;;;;5126915;28;20861;-71
2022/09/29 14:06:13;;;;;;;5.87;3.43;;;;;;;;;;5126237;27;20445;-68
2022/09/29 14:08:42;;;;;;;6.50;3.70;;;;;;;;;;5119048;28;20492;-69
2022/09/29 14:11:23;;;;;;;5.30;3.07;;;;;;;;;;5112603;28;20862;-70
2022/09/29 14:13:57;;;;;;;5.20;2.90;;;;;;;;;;5129407;27;20449;-70
2022/09/29 14:16:40;;;;;;;4.33;2.40;;;;;;;;;;5116420;28;20461;-68
2022/09/29 14:19:09;;;;;;;5.50;3.17;;;;;;;;;;5113021;28;20478;-69
2022/09/29 14:21:49;;;;;;;5.93;3.90;;;;;;;;;;5129265;27;20475;-69
2022/09/29 14:24:34;;;;;;;6.60;3.13;;;;;;;;;;5122582;27;20469;-70
2022/09/29 14:27:18;;;;;;;6.00;3.27;;;;;;;;;;5129271;27;20465;-68
2022/09/29 14:29:48;;;;;;;6.30;3.57;;;;;;;;;;5120512;28;20855;-69
2022/09/29 14:32:20;;;;;;;5.10;3.50;;;;;;;;;;5124915;28;20457;-69
2022/09/29 14:34:49;;;;;;;6.30;3.13;;;;;;;;;;5118585;27;20462;-71
2022/09/29 14:37:27;;;;;;;7.27;4.33;;;;;;;;;;5123784;27;20493;-71
2022/09/29 14:42:41;;;;;;;5.90;3.23;;;;;;;;;;5112730;28;20449;-68
2022/09/29 14:54:03;;;;;;;4.83;2.60;;;;;;;;;;5032345;28;20548;-69
2022/09/29 14:56:55;;;;;;;5.77;3.37;;;;;;;;;;5111577;28;20474;-69
2022/09/29 14:59:28;;;;;;;4.30;2.77;;;;;;;;;;5130584;27;20972;-70
2022/09/29 15:02:09;;;;;;;6.53;3.90;;;;;;;;;;5125517;27;20467;-69
2022/09/29 15:04:40;;;;;;;5.87;4.00;;;;;;;;;;5114351;28;20458;-69
2022/09/29 15:07:11;;;;;;;5.57;3.97;;;;;;;;;;5115571;27;20459;-69
2022/09/29 15:09:49;;;;;;;5.67;3.70;;;;;;;;;;5129368;27;20484;-69
2022/09/29 15:12:19;;;;;;;5.30;4.47;;;;;;;;;;5119821;27;20455;-69
2022/09/29 15:14:46;;;;;;;5.77;4.53;;;;;;;;;;5115561;28;20435;-75
2022/09/29 15:17:18;;;;;;;4.73;4.00;;;;;;;;;;5112927;28;20778;-69